Wingene, Belgium
Current Conditions -  °F | °C
As of 2:20 AM on Monday 22 Dec 2014 (Local Time) from EBOS Reporting Station
Broken Clouds Broken Clouds  
Wind Chill: 52°   Ceiling: 1100
Heat Index: 52°   Visibility: 6mi
Dew Point: 48°   Wind: 25mph
Humidity: 88%   Direction: 230°SW
Pressure: 30.15"   Gusts: 38mph
Location:  51.06°N, 3.27°E
Report Text: EBOS 220120Z 23022G33KT 9999 BKN011 11/09 Q1021 TEMPO 4000 -RADZ BKN008
Loading
Personal Weather Stations






























Interactive Weather Map New forecast layout! Learn more

10-Day Weather Forecast

Advertisements
Track Severe Weather on mobile